sensor_id;sensor_type;location;lat;lon;timestamp;P1;durP1;ratioP1;P2;durP2;ratioP2
15393;SDS011;7795;47.986;11.868;2024-02-26T00:01:24;4.07;;;3.50;;
15393;SDS011;7795;47.986;11.868;2024-02-26T00:03:50;4.40;;;4.00;;
15393;SDS011;7795;47.986;11.868;2024-02-26T00:06:15;4.00;;;3.37;;
15393;SDS011;7795;47.986;11.868;2024-02-26T00:08:43;3.73;;;3.17;;
15393;SDS011;7795;47.986;11.868;2024-02-26T00:11:09;2.93;;;2.73;;
15393;SDS011;7795;47.986;11.868;2024-02-26T00:13:35;5.57;;;3.20;;
15393;SDS011;7795;47.986;11.868;2024-02-26T00:16:02;3.23;;;2.93;;
15393;SDS011;7795;47.986;11.868;2024-02-26T00:18:28;4.40;;;3.40;;
15393;SDS011;7795;47.986;11.868;2024-02-26T00:20:54;3.53;;;2.83;;
15393;SDS011;7795;47.986;11.868;2024-02-26T00:23:20;3.23;;;2.87;;
15393;SDS011;7795;47.986;11.868;2024-02-26T00:25:46;4.00;;;3.17;;
15393;SDS011;7795;47.986;11.868;2024-02-26T00:28:12;3.50;;;3.20;;
15393;SDS011;7795;47.986;11.868;2024-02-26T00:30:38;3.23;;;2.67;;
15393;SDS011;7795;47.986;11.868;2024-02-26T00:33:05;3.50;;;3.20;;
15393;SDS011;7795;47.986;11.868;2024-02-26T00:35:31;3.87;;;3.17;;
15393;SDS011;7795;47.986;11.868;2024-02-26T00:37:57;3.77;;;3.47;;
15393;SDS011;7795;47.986;11.868;2024-02-26T00:40:23;3.50;;;3.13;;
15393;SDS011;7795;47.986;11.868;2024-02-26T00:42:49;3.53;;;3.23;;
15393;SDS011;7795;47.986;11.868;2024-02-26T00:45:15;3.40;;;3.10;;
15393;SDS011;7795;47.986;11.868;2024-02-26T00:47:41;5.47;;;3.70;;
15393;SDS011;7795;47.986;11.868;2024-02-26T00:50:09;4.03;;;3.23;;
15393;SDS011;7795;47.986;11.868;2024-02-26T00:52:35;3.63;;;3.20;;
15393;SDS011;7795;47.986;11.868;2024-02-26T00:55:01;4.57;;;3.10;;
15393;SDS011;7795;47.986;11.868;2024-02-26T00:57:27;4.60;;;4.00;;
15393;SDS011;7795;47.986;11.868;2024-02-26T00:59:53;3.60;;;3.00;;
15393;SDS011;7795;47.986;11.868;2024-02-26T01:02:21;3.83;;;3.13;;
15393;SDS011;7795;47.986;11.868;2024-02-26T01:04:47;4.57;;;3.10;;
15393;SDS011;7795;47.986;11.868;2024-02-26T01:07:14;3.40;;;2.97;;
15393;SDS011;7795;47.986;11.868;2024-02-26T01:09:39;4.57;;;3.50;;
15393;SDS011;7795;47.986;11.868;2024-02-26T01:12:05;4.10;;;3.70;;
15393;SDS011;7795;47.986;11.868;2024-02-26T01:14:31;3.70;;;3.30;;
15393;SDS011;7795;47.986;11.868;2024-02-26T01:16:57;3.67;;;3.10;;
15393;SDS011;7795;47.986;11.868;2024-02-26T01:19:22;3.90;;;3.50;;
15393;SDS011;7795;47.986;11.868;2024-02-26T01:21:48;4.17;;;3.77;;
15393;SDS011;7795;47.986;11.868;2024-02-26T01:24:15;4.13;;;3.73;;
15393;SDS011;7795;47.986;11.868;2024-02-26T01:26:41;4.87;;;3.93;;
15393;SDS011;7795;47.986;11.868;2024-02-26T01:29:07;4.33;;;3.77;;
15393;SDS011;7795;47.986;11.868;2024-02-26T01:31:33;4.37;;;3.70;;
15393;SDS011;7795;47.986;11.868;2024-02-26T01:33:59;4.37;;;3.90;;
15393;SDS011;7795;47.986;11.868;2024-02-26T01:36:25;4.73;;;3.40;;
15393;SDS011;7795;47.986;11.868;2024-02-26T01:38:51;4.07;;;3.40;;
15393;SDS011;7795;47.986;11.868;2024-02-26T01:41:18;3.37;;;2.70;;
15393;SDS011;7795;47.986;11.868;2024-02-26T01:43:44;3.47;;;3.17;;
15393;SDS011;7795;47.986;11.868;2024-02-26T01:46:10;5.67;;;3.20;;
15393;SDS011;7795;47.986;11.868;2024-02-26T01:48:39;3.13;;;2.83;;
15393;SDS011;7795;47.986;11.868;2024-02-26T01:51:05;3.10;;;2.83;;
15393;SDS011;7795;47.986;11.868;2024-02-26T01:53:31;3.77;;;3.47;;
15393;SDS011;7795;47.986;11.868;2024-02-26T01:55:57;4.03;;;3.63;;
15393;SDS011;7795;47.986;11.868;2024-02-26T01:58:24;3.50;;;3.20;;
15393;SDS011;7795;47.986;11.868;2024-02-26T02:00:50;3.50;;;3.20;;
15393;SDS011;7795;47.986;11.868;2024-02-26T02:03:16;3.67;;;3.30;;
15393;SDS011;7795;47.986;11.868;2024-02-26T02:05:42;4.03;;;3.63;;
15393;SDS011;7795;47.986;11.868;2024-02-26T02:08:09;4.03;;;3.53;;
15393;SDS011;7795;47.986;11.868;2024-02-26T02:10:36;4.87;;;3.83;;
15393;SDS011;7795;47.986;11.868;2024-02-26T02:13:03;4.17;;;3.40;;
15393;SDS011;7795;47.986;11.868;2024-02-26T02:15:30;3.00;;;2.70;;
15393;SDS011;7795;47.986;11.868;2024-02-26T02:17:56;3.47;;;3.17;;
15393;SDS011;7795;47.986;11.868;2024-02-26T02:20:26;3.37;;;3.07;;
15393;SDS011;7795;47.986;11.868;2024-02-26T02:22:56;4.03;;;3.63;;
15393;SDS011;7795;47.986;11.868;2024-02-26T02:25:22;4.07;;;3.57;;
15393;SDS011;7795;47.986;11.868;2024-02-26T02:27:47;5.53;;;3.50;;
15393;SDS011;7795;47.986;11.868;2024-02-26T02:30:13;4.17;;;3.57;;
15393;SDS011;7795;47.986;11.868;2024-02-26T02:32:40;3.87;;;3.43;;
15393;SDS011;7795;47.986;11.868;2024-02-26T02:35:07;5.00;;;4.40;;
15393;SDS011;7795;47.986;11.868;2024-02-26T02:37:34;4.20;;;3.80;;
15393;SDS011;7795;47.986;11.868;2024-02-26T02:40:00;4.60;;;4.00;;
15393;SDS011;7795;47.986;11.868;2024-02-26T02:42:25;5.17;;;3.57;;
15393;SDS011;7795;47.986;11.868;2024-02-26T02:44:51;4.67;;;4.07;;
15393;SDS011;7795;47.986;11.868;2024-02-26T02:47:17;4.20;;;3.60;;
15393;SDS011;7795;47.986;11.868;2024-02-26T02:49:43;5.10;;;4.20;;
15393;SDS011;7795;47.986;11.868;2024-02-26T02:52:08;3.60;;;3.13;;
15393;SDS011;7795;47.986;11.868;2024-02-26T02:54:36;3.83;;;3.20;;
15393;SDS011;7795;47.986;11.868;2024-02-26T02:57:05;4.37;;;3.37;;
15393;SDS011;7795;47.986;11.868;2024-02-26T02:59:31;3.67;;;3.03;;
15393;SDS011;7795;47.986;11.868;2024-02-26T03:01:56;3.87;;;2.90;;
15393;SDS011;7795;47.986;11.868;2024-02-26T03:04:22;3.30;;;3.03;;
15393;SDS011;7795;47.986;11.868;2024-02-26T03:06:48;3.57;;;3.20;;
15393;SDS011;7795;47.986;11.868;2024-02-26T03:09:14;4.30;;;3.70;;
15393;SDS011;7795;47.986;11.868;2024-02-26T03:11:41;3.60;;;3.30;;
15393;SDS011;7795;47.986;11.868;2024-02-26T03:14:07;4.77;;;4.20;;
15393;SDS011;7795;47.986;11.868;2024-02-26T03:16:33;3.97;;;3.53;;
15393;SDS011;7795;47.986;11.868;2024-02-26T03:18:59;4.53;;;2.90;;
15393;SDS011;7795;47.986;11.868;2024-02-26T03:21:25;3.57;;;3.27;;
15393;SDS011;7795;47.986;11.868;2024-02-26T03:23:51;7.63;;;3.57;;
15393;SDS011;7795;47.986;11.868;2024-02-26T03:26:16;4.53;;;3.70;;
15393;SDS011;7795;47.986;11.868;2024-02-26T03:28:43;4.97;;;3.40;;
15393;SDS011;7795;47.986;11.868;2024-02-26T03:31:09;4.57;;;3.37;;
15393;SDS011;7795;47.986;11.868;2024-02-26T03:33:35;3.77;;;3.10;;
15393;SDS011;7795;47.986;11.868;2024-02-26T03:36:01;3.73;;;3.33;;
15393;SDS011;7795;47.986;11.868;2024-02-26T03:38:28;4.03;;;3.37;;
15393;SDS011;7795;47.986;11.868;2024-02-26T03:40:53;5.37;;;4.00;;
15393;SDS011;7795;47.986;11.868;2024-02-26T03:43:19;5.93;;;3.97;;
15393;SDS011;7795;47.986;11.868;2024-02-26T03:45:46;5.17;;;3.30;;
15393;SDS011;7795;47.986;11.868;2024-02-26T03:48:12;3.73;;;3.40;;
15393;SDS011;7795;47.986;11.868;2024-02-26T03:50:38;4.20;;;3.80;;
15393;SDS011;7795;47.986;11.868;2024-02-26T03:53:04;3.77;;;3.47;;
15393;SDS011;7795;47.986;11.868;2024-02-26T03:55:30;6.27;;;4.00;;
15393;SDS011;7795;47.986;11.868;2024-02-26T03:57:55;5.87;;;5.00;;
15393;SDS011;7795;47.986;11.868;2024-02-26T04:00:21;5.00;;;4.13;;
15393;SDS011;7795;47.986;11.868;2024-02-26T04:02:48;7.70;;;4.63;;
15393;SDS011;7795;47.986;11.868;2024-02-26T04:05:15;4.43;;;3.67;;
15393;SDS011;7795;47.986;11.868;2024-02-26T04:07:41;5.17;;;3.97;;
15393;SDS011;7795;47.986;11.868;2024-02-26T04:10:08;6.13;;;3.97;;
15393;SDS011;7795;47.986;11.868;2024-02-26T04:12:34;6.77;;;3.90;;
15393;SDS011;7795;47.986;11.868;2024-02-26T04:15:00;4.60;;;3.80;;
15393;SDS011;7795;47.986;11.868;2024-02-26T04:17:26;5.13;;;3.93;;
15393;SDS011;7795;47.986;11.868;2024-02-26T04:19:53;3.23;;;2.93;;
15393;SDS011;7795;47.986;11.868;2024-02-26T04:22:19;5.07;;;3.90;;
15393;SDS011;7795;47.986;11.868;2024-02-26T04:24:44;3.63;;;3.07;;
15393;SDS011;7795;47.986;11.868;2024-02-26T04:27:10;3.80;;;3.40;;
15393;SDS011;7795;47.986;11.868;2024-02-26T04:29:36;4.47;;;4.07;;
15393;SDS011;7795;47.986;11.868;2024-02-26T04:32:02;4.93;;;3.83;;
15393;SDS011;7795;47.986;11.868;2024-02-26T04:34:28;7.47;;;4.27;;
15393;SDS011;7795;47.986;11.868;2024-02-26T04:36:57;8.13;;;3.80;;
15393;SDS011;7795;47.986;11.868;2024-02-26T04:39:23;3.67;;;3.37;;
15393;SDS011;7795;47.986;11.868;2024-02-26T04:41:49;3.77;;;3.17;;
15393;SDS011;7795;47.986;11.868;2024-02-26T04:44:14;4.23;;;3.83;;
15393;SDS011;7795;47.986;11.868;2024-02-26T04:46:40;6.73;;;3.80;;
15393;SDS011;7795;47.986;11.868;2024-02-26T04:49:06;4.77;;;3.07;;
15393;SDS011;7795;47.986;11.868;2024-02-26T04:51:32;6.53;;;4.00;;
15393;SDS011;7795;47.986;11.868;2024-02-26T04:53:59;5.87;;;3.70;;
15393;SDS011;7795;47.986;11.868;2024-02-26T04:56:25;3.73;;;3.43;;
15393;SDS011;7795;47.986;11.868;2024-02-26T04:58:50;5.13;;;3.70;;
15393;SDS011;7795;47.986;11.868;2024-02-26T05:01:16;3.90;;;3.47;;
15393;SDS011;7795;47.986;11.868;2024-02-26T05:03:43;4.70;;;3.60;;
15393;SDS011;7795;47.986;11.868;2024-02-26T05:06:09;4.37;;;3.97;;
15393;SDS011;7795;47.986;11.868;2024-02-26T05:08:35;5.00;;;4.47;;
15393;SDS011;7795;47.986;11.868;2024-02-26T05:11:04;6.77;;;4.20;;
15393;SDS011;7795;47.986;11.868;2024-02-26T05:13:30;6.90;;;3.30;;
15393;SDS011;7795;47.986;11.868;2024-02-26T05:15:56;4.73;;;3.83;;
15393;SDS011;7795;47.986;11.868;2024-02-26T05:18:21;4.50;;;3.67;;
15393;SDS011;7795;47.986;11.868;2024-02-26T05:20:47;4.20;;;3.77;;
15393;SDS011;7795;47.986;11.868;2024-02-26T05:23:13;5.03;;;4.00;;
15393;SDS011;7795;47.986;11.868;2024-02-26T05:25:39;6.47;;;4.10;;
15393;SDS011;7795;47.986;11.868;2024-02-26T05:28:06;7.37;;;3.97;;
15393;SDS011;7795;47.986;11.868;2024-02-26T05:30:32;4.80;;;4.30;;
15393;SDS011;7795;47.986;11.868;2024-02-26T05:32:58;5.40;;;3.40;;
15393;SDS011;7795;47.986;11.868;2024-02-26T05:35:24;4.70;;;4.00;;
15393;SDS011;7795;47.986;11.868;2024-02-26T05:37:51;4.30;;;3.53;;
15393;SDS011;7795;47.986;11.868;2024-02-26T05:40:16;8.00;;;5.00;;
15393;SDS011;7795;47.986;11.868;2024-02-26T05:42:42;7.83;;;5.10;;
15393;SDS011;7795;47.986;11.868;2024-02-26T05:45:11;6.33;;;4.77;;
15393;SDS011;7795;47.986;11.868;2024-02-26T05:47:37;5.27;;;3.87;;
15393;SDS011;7795;47.986;11.868;2024-02-26T05:50:08;6.30;;;4.17;;
15393;SDS011;7795;47.986;11.868;2024-02-26T05:52:35;4.20;;;3.77;;
15393;SDS011;7795;47.986;11.868;2024-02-26T05:55:01;6.03;;;3.90;;
15393;SDS011;7795;47.986;11.868;2024-02-26T05:57:28;5.37;;;4.13;;
15393;SDS011;7795;47.986;11.868;2024-02-26T05:59:53;5.67;;;3.87;;
15393;SDS011;7795;47.986;11.868;2024-02-26T06:02:20;7.87;;;4.57;;
15393;SDS011;7795;47.986;11.868;2024-02-26T06:04:46;6.73;;;3.87;;
15393;SDS011;7795;47.986;11.868;2024-02-26T06:07:12;4.93;;;3.63;;
15393;SDS011;7795;47.986;11.868;2024-02-26T06:09:38;5.43;;;3.70;;
15393;SDS011;7795;47.986;11.868;2024-02-26T06:12:04;4.77;;;3.53;;
15393;SDS011;7795;47.986;11.868;2024-02-26T06:14:31;6.67;;;3.60;;
15393;SDS011;7795;47.986;11.868;2024-02-26T06:16:56;4.57;;;3.40;;
15393;SDS011;7795;47.986;11.868;2024-02-26T06:19:24;7.30;;;4.10;;
15393;SDS011;7795;47.986;11.868;2024-02-26T06:21:49;6.30;;;3.90;;
15393;SDS011;7795;47.986;11.868;2024-02-26T06:24:16;7.23;;;4.03;;
15393;SDS011;7795;47.986;11.868;2024-02-26T06:26:41;10.57;;;4.27;;
15393;SDS011;7795;47.986;11.868;2024-02-26T06:29:07;4.90;;;3.70;;
15393;SDS011;7795;47.986;11.868;2024-02-26T06:31:33;6.80;;;4.23;;
15393;SDS011;7795;47.986;11.868;2024-02-26T06:33:59;5.37;;;3.73;;
15393;SDS011;7795;47.986;11.868;2024-02-26T06:36:26;10.27;;;4.13;;
15393;SDS011;7795;47.986;11.868;2024-02-26T06:38:51;4.47;;;3.90;;
15393;SDS011;7795;47.986;11.868;2024-02-26T06:41:19;9.50;;;4.10;;
15393;SDS011;7795;47.986;11.868;2024-02-26T06:43:44;6.03;;;4.47;;
15393;SDS011;7795;47.986;11.868;2024-02-26T06:46:10;12.47;;;5.53;;
15393;SDS011;7795;47.986;11.868;2024-02-26T06:48:36;8.87;;;5.30;;
15393;SDS011;7795;47.986;11.868;2024-02-26T06:51:02;7.27;;;3.70;;
15393;SDS011;7795;47.986;11.868;2024-02-26T06:53:29;5.30;;;4.40;;
15393;SDS011;7795;47.986;11.868;2024-02-26T06:55:55;5.43;;;4.47;;
15393;SDS011;7795;47.986;11.868;2024-02-26T06:58:20;6.70;;;4.33;;
15393;SDS011;7795;47.986;11.868;2024-02-26T07:00:46;6.17;;;4.40;;
15393;SDS011;7795;47.986;11.868;2024-02-26T07:03:12;5.83;;;4.37;;
15393;SDS011;7795;47.986;11.868;2024-02-26T07:05:39;5.63;;;3.80;;
15393;SDS011;7795;47.986;11.868;2024-02-26T07:08:05;5.70;;;4.23;;
15393;SDS011;7795;47.986;11.868;2024-02-26T07:10:33;7.03;;;3.73;;
15393;SDS011;7795;47.986;11.868;2024-02-26T07:12:59;6.50;;;3.90;;
15393;SDS011;7795;47.986;11.868;2024-02-26T07:15:24;3.97;;;2.93;;
15393;SDS011;7795;47.986;11.868;2024-02-26T07:17:50;3.93;;;3.20;;
15393;SDS011;7795;47.986;11.868;2024-02-26T07:20:16;3.50;;;3.00;;
15393;SDS011;7795;47.986;11.868;2024-02-26T07:22:43;3.47;;;2.40;;
15393;SDS011;7795;47.986;11.868;2024-02-26T07:25:09;4.67;;;3.03;;
15393;SDS011;7795;47.986;11.868;2024-02-26T07:27:39;6.83;;;3.40;;
15393;SDS011;7795;47.986;11.868;2024-02-26T07:30:05;4.83;;;3.53;;
15393;SDS011;7795;47.986;11.868;2024-02-26T07:32:33;4.63;;;3.23;;
15393;SDS011;7795;47.986;11.868;2024-02-26T07:34:59;8.03;;;2.73;;
15393;SDS011;7795;47.986;11.868;2024-02-26T07:37:25;4.37;;;2.80;;
15393;SDS011;7795;47.986;11.868;2024-02-26T07:39:50;4.00;;;3.00;;
15393;SDS011;7795;47.986;11.868;2024-02-26T07:42:17;4.93;;;3.70;;
15393;SDS011;7795;47.986;11.868;2024-02-26T07:44:44;9.87;;;3.83;;
15393;SDS011;7795;47.986;11.868;2024-02-26T07:47:10;3.77;;;3.37;;
15393;SDS011;7795;47.986;11.868;2024-02-26T07:49:35;4.23;;;3.70;;
15393;SDS011;7795;47.986;11.868;2024-02-26T07:52:01;4.30;;;3.80;;
15393;SDS011;7795;47.986;11.868;2024-02-26T07:54:27;4.87;;;3.23;;
15393;SDS011;7795;47.986;11.868;2024-02-26T07:56:53;8.13;;;3.57;;
15393;SDS011;7795;47.986;11.868;2024-02-26T07:59:18;5.00;;;3.30;;
15393;SDS011;7795;47.986;11.868;2024-02-26T08:01:50;4.83;;;3.30;;
15393;SDS011;7795;47.986;11.868;2024-02-26T08:04:16;11.30;;;4.27;;
15393;SDS011;7795;47.986;11.868;2024-02-26T08:06:41;4.87;;;3.73;;
15393;SDS011;7795;47.986;11.868;2024-02-26T08:09:08;4.77;;;3.80;;
15393;SDS011;7795;47.986;11.868;2024-02-26T08:11:34;9.37;;;3.93;;
15393;SDS011;7795;47.986;11.868;2024-02-26T08:14:00;5.67;;;3.90;;
15393;SDS011;7795;47.986;11.868;2024-02-26T08:16:25;5.67;;;3.37;;
15393;SDS011;7795;47.986;11.868;2024-02-26T08:18:52;6.43;;;3.70;;
15393;SDS011;7795;47.986;11.868;2024-02-26T08:21:18;5.23;;;3.33;;
15393;SDS011;7795;47.986;11.868;2024-02-26T08:23:44;4.57;;;3.40;;
15393;SDS011;7795;47.986;11.868;2024-02-26T08:26:10;4.30;;;3.30;;
15393;SDS011;7795;47.986;11.868;2024-02-26T08:28:36;3.83;;;3.43;;
15393;SDS011;7795;47.986;11.868;2024-02-26T08:31:02;32.23;;;9.93;;
15393;SDS011;7795;47.986;11.868;2024-02-26T08:33:28;13.47;;;5.80;;
15393;SDS011;7795;47.986;11.868;2024-02-26T08:35:55;8.03;;;3.90;;
15393;SDS011;7795;47.986;11.868;2024-02-26T08:38:21;6.60;;;3.60;;
15393;SDS011;7795;47.986;11.868;2024-02-26T08:40:48;7.20;;;3.70;;
15393;SDS011;7795;47.986;11.868;2024-02-26T08:43:14;4.20;;;3.37;;
15393;SDS011;7795;47.986;11.868;2024-02-26T08:45:39;8.03;;;4.53;;
15393;SDS011;7795;47.986;11.868;2024-02-26T08:48:06;6.23;;;3.60;;
15393;SDS011;7795;47.986;11.868;2024-02-26T08:50:32;5.40;;;3.90;;
15393;SDS011;7795;47.986;11.868;2024-02-26T08:52:59;5.20;;;3.80;;
15393;SDS011;7795;47.986;11.868;2024-02-26T08:55:26;8.80;;;3.73;;
15393;SDS011;7795;47.986;11.868;2024-02-26T08:57:52;10.30;;;5.90;;
15393;SDS011;7795;47.986;11.868;2024-02-26T09:00:18;5.00;;;3.90;;
15393;SDS011;7795;47.986;11.868;2024-02-26T09:02:45;5.37;;;3.57;;
15393;SDS011;7795;47.986;11.868;2024-02-26T09:05:12;3.83;;;3.17;;
15393;SDS011;7795;47.986;11.868;2024-02-26T09:07:38;17.27;;;8.53;;
15393;SDS011;7795;47.986;11.868;2024-02-26T09:10:05;17.30;;;7.70;;
15393;SDS011;7795;47.986;11.868;2024-02-26T09:12:34;10.67;;;4.87;;
15393;SDS011;7795;47.986;11.868;2024-02-26T09:15:00;5.80;;;3.90;;
15393;SDS011;7795;47.986;11.868;2024-02-26T09:17:25;10.90;;;4.70;;
15393;SDS011;7795;47.986;11.868;2024-02-26T09:19:51;8.70;;;4.00;;
15393;SDS011;7795;47.986;11.868;2024-02-26T09:22:17;9.23;;;4.47;;
15393;SDS011;7795;47.986;11.868;2024-02-26T09:24:43;15.93;;;5.03;;
15393;SDS011;7795;47.986;11.868;2024-02-26T09:27:10;4.80;;;3.57;;
15393;SDS011;7795;47.986;11.868;2024-02-26T09:29:35;5.60;;;4.00;;
15393;SDS011;7795;47.986;11.868;2024-02-26T09:32:02;4.97;;;2.97;;
15393;SDS011;7795;47.986;11.868;2024-02-26T09:34:28;5.70;;;4.00;;
15393;SDS011;7795;47.986;11.868;2024-02-26T09:36:53;5.07;;;3.70;;
15393;SDS011;7795;47.986;11.868;2024-02-26T09:39:19;5.90;;;3.57;;
15393;SDS011;7795;47.986;11.868;2024-02-26T09:41:47;10.17;;;4.63;;
15393;SDS011;7795;47.986;11.868;2024-02-26T09:44:15;8.23;;;4.50;;
15393;SDS011;7795;47.986;11.868;2024-02-26T09:46:45;10.30;;;4.50;;
15393;SDS011;7795;47.986;11.868;2024-02-26T09:49:12;9.47;;;3.73;;
15393;SDS011;7795;47.986;11.868;2024-02-26T09:51:40;6.43;;;3.40;;
15393;SDS011;7795;47.986;11.868;2024-02-26T09:54:06;11.43;;;4.37;;
15393;SDS011;7795;47.986;11.868;2024-02-26T09:56:34;4.60;;;3.10;;
15393;SDS011;7795;47.986;11.868;2024-02-26T09:59:00;7.30;;;3.27;;
15393;SDS011;7795;47.986;11.868;2024-02-26T10:01:31;8.60;;;2.83;;
15393;SDS011;7795;47.986;11.868;2024-02-26T10:03:59;5.30;;;3.37;;
15393;SDS011;7795;47.986;11.868;2024-02-26T10:06:26;14.20;;;3.67;;
15393;SDS011;7795;47.986;11.868;2024-02-26T10:08:53;13.43;;;7.83;;
15393;SDS011;7795;47.986;11.868;2024-02-26T10:11:19;9.80;;;6.90;;
15393;SDS011;7795;47.986;11.868;2024-02-26T10:13:47;9.53;;;6.33;;
15393;SDS011;7795;47.986;11.868;2024-02-26T10:16:12;9.47;;;4.63;;
15393;SDS011;7795;47.986;11.868;2024-02-26T10:18:47;5.67;;;3.60;;
15393;SDS011;7795;47.986;11.868;2024-02-26T10:21:14;5.00;;;3.03;;
15393;SDS011;7795;47.986;11.868;2024-02-26T10:23:42;3.20;;;2.90;;
15393;SDS011;7795;47.986;11.868;2024-02-26T10:26:08;8.70;;;3.40;;
15393;SDS011;7795;47.986;11.868;2024-02-26T10:28:36;3.03;;;2.73;;
15393;SDS011;7795;47.986;11.868;2024-02-26T10:31:02;4.93;;;2.67;;
15393;SDS011;7795;47.986;11.868;2024-02-26T10:33:29;3.70;;;2.40;;
15393;SDS011;7795;47.986;11.868;2024-02-26T10:35:56;9.33;;;2.80;;
15393;SDS011;7795;47.986;11.868;2024-02-26T10:38:22;3.33;;;1.93;;
15393;SDS011;7795;47.986;11.868;2024-02-26T10:40:48;3.53;;;2.00;;
15393;SDS011;7795;47.986;11.868;2024-02-26T10:43:14;2.87;;;1.83;;
15393;SDS011;7795;47.986;11.868;2024-02-26T10:45:42;3.90;;;2.30;;
15393;SDS011;7795;47.986;11.868;2024-02-26T10:48:09;2.33;;;1.90;;
15393;SDS011;7795;47.986;11.868;2024-02-26T10:50:36;3.23;;;1.97;;
15393;SDS011;7795;47.986;11.868;2024-02-26T10:53:05;3.07;;;2.10;;
15393;SDS011;7795;47.986;11.868;2024-02-26T10:55:41;5.17;;;1.90;;
15393;SDS011;7795;47.986;11.868;2024-02-26T10:58:08;2.37;;;1.60;;
15393;SDS011;7795;47.986;11.868;2024-02-26T11:00:35;1.73;;;1.63;;
15393;SDS011;7795;47.986;11.868;2024-02-26T11:03:03;2.30;;;1.63;;
15393;SDS011;7795;47.986;11.868;2024-02-26T11:05:31;2.90;;;1.83;;
15393;SDS011;7795;47.986;11.868;2024-02-26T11:07:58;4.17;;;1.93;;
15393;SDS011;7795;47.986;11.868;2024-02-26T11:10:26;2.17;;;1.77;;
15393;SDS011;7795;47.986;11.868;2024-02-26T11:12:55;2.03;;;1.63;;
15393;SDS011;7795;47.986;11.868;2024-02-26T11:15:23;2.90;;;1.80;;
15393;SDS011;7795;47.986;11.868;2024-02-26T11:17:49;2.80;;;2.03;;
15393;SDS011;7795;47.986;11.868;2024-02-26T11:20:17;1.80;;;1.70;;
15393;SDS011;7795;47.986;11.868;2024-02-26T11:22:44;1.90;;;1.70;;
15393;SDS011;7795;47.986;11.868;2024-02-26T11:25:10;3.53;;;1.73;;
15393;SDS011;7795;47.986;11.868;2024-02-26T11:27:40;3.87;;;2.10;;
15393;SDS011;7795;47.986;11.868;2024-02-26T11:30:10;2.47;;;1.90;;
15393;SDS011;7795;47.986;11.868;2024-02-26T11:32:37;3.67;;;1.83;;
15393;SDS011;7795;47.986;11.868;2024-02-26T11:35:03;1.80;;;1.70;;
15393;SDS011;7795;47.986;11.868;2024-02-26T11:37:30;1.87;;;1.70;;
15393;SDS011;7795;47.986;11.868;2024-02-26T11:39:58;3.93;;;2.63;;
15393;SDS011;7795;47.986;11.868;2024-02-26T11:42:26;2.17;;;1.33;;
15393;SDS011;7795;47.986;11.868;2024-02-26T11:44:55;4.60;;;1.87;;
15393;SDS011;7795;47.986;11.868;2024-02-26T11:47:26;4.27;;;1.37;;
15393;SDS011;7795;47.986;11.868;2024-02-26T11:49:52;1.50;;;1.20;;
15393;SDS011;7795;47.986;11.868;2024-02-26T11:52:18;2.13;;;1.53;;
15393;SDS011;7795;47.986;11.868;2024-02-26T11:54:44;2.30;;;1.50;;
15393;SDS011;7795;47.986;11.868;2024-02-26T11:57:24;2.17;;;1.57;;
15393;SDS011;7795;47.986;11.868;2024-02-26T11:59:52;4.17;;;1.53;;
15393;SDS011;7795;47.986;11.868;2024-02-26T12:02:44;4.10;;;1.57;;
15393;SDS011;7795;47.986;11.868;2024-02-26T12:05:11;1.87;;;1.57;;
15393;SDS011;7795;47.986;11.868;2024-02-26T12:07:39;1.20;;;0.93;;
15393;SDS011;7795;47.986;11.868;2024-02-26T12:10:13;1.43;;;0.90;;
15393;SDS011;7795;47.986;11.868;2024-02-26T12:12:41;2.47;;;1.10;;
15393;SDS011;7795;47.986;11.868;2024-02-26T12:15:08;1.30;;;1.20;;
15393;SDS011;7795;47.986;11.868;2024-02-26T12:17:36;0.70;;;0.70;;
15393;SDS011;7795;47.986;11.868;2024-02-26T12:20:09;2.47;;;1.20;;
15393;SDS011;7795;47.986;11.868;2024-02-26T12:22:35;0.70;;;0.70;;
15393;SDS011;7795;47.986;11.868;2024-02-26T12:25:02;2.70;;;1.00;;
15393;SDS011;7795;47.986;11.868;2024-02-26T12:27:28;2.33;;;1.37;;
15393;SDS011;7795;47.986;11.868;2024-02-26T12:29:54;0.80;;;0.80;;
15393;SDS011;7795;47.986;11.868;2024-02-26T12:32:21;1.23;;;0.80;;
15393;SDS011;7795;47.986;11.868;2024-02-26T12:34:48;0.87;;;0.87;;
15393;SDS011;7795;47.986;11.868;2024-02-26T12:37:14;0.97;;;0.60;;
15393;SDS011;7795;47.986;11.868;2024-02-26T12:39:40;0.60;;;0.60;;
15393;SDS011;7795;47.986;11.868;2024-02-26T12:42:06;0.50;;;0.50;;
15393;SDS011;7795;47.986;11.868;2024-02-26T12:44:32;0.87;;;0.70;;
15393;SDS011;7795;47.986;11.868;2024-02-26T12:47:01;3.60;;;0.97;;
15393;SDS011;7795;47.986;11.868;2024-02-26T12:49:29;0.90;;;0.80;;
15393;SDS011;7795;47.986;11.868;2024-02-26T12:51:55;4.50;;;1.20;;
15393;SDS011;7795;47.986;11.868;2024-02-26T12:54:27;5.00;;;0.97;;
15393;SDS011;7795;47.986;11.868;2024-02-26T12:56:54;1.00;;;0.90;;
15393;SDS011;7795;47.986;11.868;2024-02-26T12:59:20;0.80;;;0.80;;
15393;SDS011;7795;47.986;11.868;2024-02-26T13:01:46;0.93;;;0.87;;
15393;SDS011;7795;47.986;11.868;2024-02-26T13:04:12;1.23;;;0.73;;
15393;SDS011;7795;47.986;11.868;2024-02-26T13:06:40;1.57;;;0.60;;
15393;SDS011;7795;47.986;11.868;2024-02-26T13:09:05;1.20;;;0.70;;
15393;SDS011;7795;47.986;11.868;2024-02-26T13:11:31;0.87;;;0.80;;
15393;SDS011;7795;47.986;11.868;2024-02-26T13:13:58;0.80;;;0.70;;
15393;SDS011;7795;47.986;11.868;2024-02-26T13:16:24;0.50;;;0.50;;
15393;SDS011;7795;47.986;11.868;2024-02-26T13:18:50;0.70;;;0.70;;
15393;SDS011;7795;47.986;11.868;2024-02-26T13:21:16;0.63;;;0.60;;
15393;SDS011;7795;47.986;11.868;2024-02-26T13:23:47;1.97;;;0.80;;
15393;SDS011;7795;47.986;11.868;2024-02-26T13:26:15;0.93;;;0.67;;
15393;SDS011;7795;47.986;11.868;2024-02-26T13:28:41;0.47;;;0.47;;
15393;SDS011;7795;47.986;11.868;2024-02-26T13:31:07;0.60;;;0.60;;
15393;SDS011;7795;47.986;11.868;2024-02-26T13:33:33;1.23;;;0.70;;
15393;SDS011;7795;47.986;11.868;2024-02-26T13:36:00;0.90;;;0.67;;
15393;SDS011;7795;47.986;11.868;2024-02-26T13:38:26;1.47;;;0.70;;
15393;SDS011;7795;47.986;11.868;2024-02-26T13:40:54;1.10;;;0.80;;
15393;SDS011;7795;47.986;11.868;2024-02-26T13:43:20;1.47;;;0.90;;
15393;SDS011;7795;47.986;11.868;2024-02-26T13:45:46;1.27;;;0.70;;
15393;SDS011;7795;47.986;11.868;2024-02-26T13:48:12;1.27;;;0.97;;
15393;SDS011;7795;47.986;11.868;2024-02-26T13:50:39;1.33;;;0.80;;
15393;SDS011;7795;47.986;11.868;2024-02-26T13:53:05;0.73;;;0.73;;
15393;SDS011;7795;47.986;11.868;2024-02-26T13:55:31;2.50;;;0.93;;
15393;SDS011;7795;47.986;11.868;2024-02-26T13:57:59;2.53;;;1.00;;
15393;SDS011;7795;47.986;11.868;2024-02-26T14:00:28;3.23;;;1.27;;
15393;SDS011;7795;47.986;11.868;2024-02-26T14:02:57;1.20;;;0.80;;
15393;SDS011;7795;47.986;11.868;2024-02-26T14:05:23;1.07;;;0.97;;
15393;SDS011;7795;47.986;11.868;2024-02-26T14:07:49;1.53;;;1.03;;
15393;SDS011;7795;47.986;11.868;2024-02-26T14:10:14;1.10;;;1.00;;
15393;SDS011;7795;47.986;11.868;2024-02-26T14:12:41;2.83;;;1.10;;
15393;SDS011;7795;47.986;11.868;2024-02-26T14:15:09;3.10;;;1.20;;
15393;SDS011;7795;47.986;11.868;2024-02-26T14:17:35;2.80;;;1.00;;
15393;SDS011;7795;47.986;11.868;2024-02-26T14:20:01;0.87;;;0.87;;
15393;SDS011;7795;47.986;11.868;2024-02-26T14:22:28;2.17;;;1.00;;
15393;SDS011;7795;47.986;11.868;2024-02-26T14:24:55;2.63;;;1.00;;
15393;SDS011;7795;47.986;11.868;2024-02-26T14:27:21;3.33;;;0.93;;
15393;SDS011;7795;47.986;11.868;2024-02-26T14:29:47;3.27;;;1.10;;
15393;SDS011;7795;47.986;11.868;2024-02-26T14:32:15;1.77;;;1.10;;
15393;SDS011;7795;47.986;11.868;2024-02-26T14:34:41;0.80;;;0.80;;
15393;SDS011;7795;47.986;11.868;2024-02-26T14:37:07;1.97;;;0.90;;
15393;SDS011;7795;47.986;11.868;2024-02-26T14:39:32;2.47;;;1.10;;
15393;SDS011;7795;47.986;11.868;2024-02-26T14:41:58;1.20;;;1.10;;
15393;SDS011;7795;47.986;11.868;2024-02-26T14:44:24;4.13;;;1.30;;